Time;durP1;ratioP1;P1;durP2;ratioP2;P2;SDS_P1;SDS_P2;PMS_P1;PMS_P2;Temp;Humidity;BMP_temperature;BMP_pressure;BME280_temperature;BME280_humidity;BME280_pressure;Samples;Min_cycle;Max_cycle;Signal;HPM_P1;HPM_P2
2021/10/27 00:00:23;;;;;;;44.30;27.50;;;;;;;-0.80;71.41;98245.58;117310;1176;68745;-64
2021/10/27 00:03:08;;;;;;;38.40;24.10;;;;;;;-0.85;75.19;98250.45;117219;1177;68893;-64
2021/10/27 00:05:38;;;;;;;38.90;24.40;;;;;;;-0.89;75.18;98247.40;117301;1176;59513;-64
2021/10/27 00:08:08;;;;;;;32.80;19.30;;;;;;;-0.91;74.42;98246.23;117231;1176;59513;-64
2021/10/27 00:10:38;;;;;;;27.10;19.50;;;;;;;-0.94;73.40;98246.96;117234;1176;71875;-64
2021/10/27 00:13:08;;;;;;;40.80;24.10;;;;;;;-0.96;74.68;98248.38;117124;1177;68432;-63
2021/10/27 00:15:38;;;;;;;38.90;24.10;;;;;;;-0.98;75.64;98251.64;117280;1175;68461;-65
2021/10/27 00:18:08;;;;;;;44.10;25.30;;;;;;;-1.01;75.37;98250.14;117283;1176;59523;-64
2021/10/27 00:20:38;;;;;;;31.80;19.90;;;;;;;-1.03;74.77;98250.16;117309;1177;59477;-64
2021/10/27 00:23:09;;;;;;;39.50;24.10;;;;;;;-1.05;74.74;98249.00;117211;1177;71661;-65
2021/10/27 00:25:38;;;;;;;22.90;15.40;;;;;;;-1.06;74.59;98253.29;117290;1176;67491;-65
2021/10/27 00:28:08;;;;;;;25.20;15.40;;;;;;;-1.07;75.11;98251.41;117264;1176;68434;-63
2021/10/27 00:30:38;;;;;;;22.70;15.60;;;;;;;-1.07;73.61;98251.23;117297;1177;59542;-64
2021/10/27 00:33:08;;;;;;;21.50;16.00;;;;;;;-1.08;73.70;98248.17;117329;1166;59487;-62
2021/10/27 00:35:39;;;;;;;46.50;27.60;;;;;;;-1.09;73.86;98251.11;117298;1176;69479;-63
2021/10/27 00:38:08;;;;;;;20.70;13.20;;;;;;;-1.10;74.82;98247.87;117309;1176;67319;-63
2021/10/27 00:40:39;;;;;;;;;;;;;;;-1.11;75.61;98246.86;117255;1177;69173;-63
2021/10/27 00:43:09;;;;;;;37.00;21.10;;;;;;;-1.13;77.92;98247.56;117285;1176;59500;-63
2021/10/27 00:45:39;;;;;;;39.90;23.40;;;;;;;-1.16;77.61;98252.04;117313;1177;59558;-64
2021/10/27 00:48:09;;;;;;;37.50;22.70;;;;;;;-1.17;76.83;98252.91;117275;1177;70383;-63
2021/10/27 00:50:40;;;;;;;26.90;16.70;;;;;;;-1.18;75.38;98251.55;117104;1177;68169;-64
2021/10/27 00:53:11;;;;;;;37.60;21.80;;;;;;;-1.19;76.63;98247.13;117210;1175;69099;-65
2021/10/27 00:55:41;;;;;;;37.00;20.90;;;;;;;-1.22;76.15;98245.44;117204;1176;59535;-64
2021/10/27 00:58:11;;;;;;;;;;;;;;;-1.23;74.48;98250.94;117320;1176;59491;-64
2021/10/27 01:00:42;;;;;;;26.30;15.90;;;;;;;-1.25;76.41;98251.30;117155;1177;69677;-64
2021/10/27 01:03:11;;;;;;;;;;;;;;;-1.27;74.07;98250.98;117346;1176;68791;-63
2021/10/27 01:05:41;;;;;;;39.00;22.00;;;;;;;-1.30;74.10;98245.20;117200;1176;69199;-63
2021/10/27 01:08:13;;;;;;;41.90;26.10;;;;;;;-1.35;75.69;98249.54;117285;1175;59551;-63
2021/10/27 01:10:42;;;;;;;28.60;18.00;;;;;;;-1.41;79.41;98246.02;117252;1176;59510;-63
2021/10/27 01:13:12;;;;;;;18.30;11.70;;;;;;;-1.44;76.98;98248.95;117356;1177;71345;-64
2021/10/27 01:15:43;;;;;;;22.10;14.50;;;;;;;-1.46;74.95;98247.63;117298;1177;67587;-63
2021/10/27 01:18:13;;;;;;;21.80;15.50;;;;;;;-1.49;75.64;98250.55;117286;1168;69039;-64
2021/10/27 01:20:43;;;;;;;19.30;14.40;;;;;;;-1.52;75.34;98251.45;117298;1177;59535;-64
2021/10/27 01:23:13;;;;;;;;;;;;;;;-1.55;74.71;98252.69;117200;1176;59507;-64
2021/10/27 01:25:43;;;;;;;38.80;22.60;;;;;;;-1.58;74.96;98256.46;117328;1177;70541;-64
2021/10/27 01:28:13;;;;;;;;;;;;;;;-1.63;79.67;98251.73;117263;1175;68929;-63
2021/10/27 01:30:43;;;;;;;26.80;17.20;;;;;;;-1.67;80.70;98249.73;117274;1174;69912;-63
2021/10/27 01:33:13;;;;;;;36.10;21.50;;;;;;;-1.70;78.82;98249.27;117378;1174;59491;-63
2021/10/27 01:35:42;;;;;;;20.70;14.20;;;;;;;-1.72;77.83;98246.53;117392;1174;59528;-63
2021/10/27 01:38:13;;;;;;;10.20;7.80;;;;;;;-1.74;77.46;98247.92;117238;1174;71033;-63
2021/10/27 01:40:43;;;;;;;17.90;11.90;;;;;;;-1.74;75.03;98249.99;117177;1177;68149;-65
2021/10/27 01:43:12;;;;;;;43.10;25.60;;;;;;;-1.77;75.23;98253.08;117230;1174;69012;-64
2021/10/27 01:45:44;;;;;;;39.40;22.60;;;;;;;-1.79;77.83;98257.04;117229;1175;59536;-64
2021/10/27 01:48:13;;;;;;;36.00;22.50;;;;;;;-1.81;77.99;98260.98;117382;1174;59554;-64
2021/10/27 01:50:45;;;;;;;16.00;9.50;;;;;;;-1.82;77.47;98260.48;117302;1176;71315;-64
2021/10/27 01:53:15;;;;;;;22.40;12.90;;;;;;;-1.81;73.72;98262.17;117384;1174;68001;-64
2021/10/27 01:55:45;;;;;;;25.10;16.00;;;;;;;-1.80;73.65;98261.50;117245;1174;69039;-64
2021/10/27 01:58:15;;;;;;;28.00;17.50;;;;;;;-1.81;73.96;98263.37;117335;1174;59771;-64
2021/10/27 02:00:45;;;;;;;27.60;16.60;;;;;;;-1.83;74.34;98266.64;117332;1175;59462;-64
2021/10/27 02:03:16;;;;;;;27.10;18.40;;;;;;;-1.87;74.43;98264.63;117274;1174;70575;-64
2021/10/27 02:05:46;;;;;;;39.40;24.30;;;;;;;-1.90;73.99;98266.02;117265;1174;68417;-64
2021/10/27 02:08:16;;;;;;;;;;;;;;;-1.94;75.07;98267.25;117350;1174;68477;-64
2021/10/27 02:10:47;;;;;;;17.90;11.60;;;;;;;-1.98;74.04;98265.77;117305;1175;59500;-65
2021/10/27 02:13:17;;;;;;;24.70;14.90;;;;;;;-2.00;74.36;98269.88;117195;1174;59528;-64
2021/10/27 02:15:48;;;;;;;25.50;16.00;;;;;;;-2.00;73.41;98269.20;117236;1174;69571;-65
2021/10/27 02:18:18;;;;;;;25.90;13.90;;;;;;;-2.03;73.93;98269.38;117324;1168;68421;-64
2021/10/27 02:20:50;;;;;;;28.00;17.60;;;;;;;-2.08;75.39;98273.54;117361;1177;69265;-64
2021/10/27 02:23:21;;;;;;;25.30;17.20;;;;;;;-2.12;73.69;98278.86;117294;1174;59542;-64
2021/10/27 02:25:52;;;;;;;27.40;19.30;;;;;;;-2.16;73.39;98281.97;117326;1175;59570;-65
2021/10/27 02:28:21;;;;;;;;;;;;;;;-2.20;74.32;98285.08;117345;1175;71573;-64
2021/10/27 02:30:52;;;;;;;17.10;10.40;;;;;;;-2.23;76.12;98287.48;117272;1174;69029;-64
2021/10/27 02:33:23;;;;;;;27.80;18.80;;;;;;;-2.25;73.96;98295.88;117312;1174;68569;-64
2021/10/27 02:35:54;;;;;;;16.30;13.60;;;;;;;-2.27;74.91;98293.33;117308;1174;59548;-65
2021/10/27 02:38:42;;;;;;;23.80;16.60;;;;;;;-2.29;75.04;98292.48;117341;1174;59561;-65
2021/10/27 02:41:15;;;;;;;19.00;13.00;;;;;;;-2.30;75.23;98293.88;117291;1176;71315;-65
2021/10/27 02:43:45;;;;;;;22.10;16.80;;;;;;;-2.33;74.46;98292.34;117313;1177;68417;-65
2021/10/27 02:46:15;;;;;;;;;;;;;;;-2.36;74.76;98293.91;117301;1174;68522;-64
2021/10/27 02:48:45;;;;;;;;;;;;;;;-2.38;74.35;98298.20;117295;1176;59526;-65
2021/10/27 02:51:16;;;;;;;11.10;8.50;;;;;;;-2.42;74.88;98298.73;117349;1174;59522;-65
2021/10/27 02:53:45;;;;;;;;;;;;;;;-2.45;75.03;98305.40;117312;1177;71971;-64
2021/10/27 02:56:16;;;;;;;41.30;22.10;;;;;;;-2.47;78.48;98312.77;117348;1174;67580;-65
2021/10/27 02:58:46;;;;;;;;;;;;;;;-2.49;78.28;98316.89;117276;1177;69037;-64
2021/10/27 03:01:17;;;;;;;30.30;19.00;;;;;;;-2.51;78.78;98324.05;117358;1174;59541;-64
2021/10/27 03:03:49;;;;;;;14.70;9.60;;;;;;;-2.53;77.98;98328.86;117337;1171;59503;-64
2021/10/27 03:06:20;;;;;;;19.30;10.70;;;;;;;-2.53;76.07;98325.95;117185;1176;70560;-64
2021/10/27 03:08:51;;;;;;;22.60;13.90;;;;;;;-2.52;73.68;98320.14;117320;1175;67530;-64
2021/10/27 03:11:21;;;;;;;;;;;;;;;-2.50;76.43;98318.92;117330;1174;69182;-63
2021/10/27 03:13:51;;;;;;;15.00;10.20;;;;;;;-2.50;76.18;98323.52;117268;1170;59555;-64
2021/10/27 03:16:22;;;;;;;;;;;;;;;-2.50;74.68;98324.90;117283;1176;59590;-65
2021/10/27 03:18:52;;;;;;;26.50;16.40;;;;;;;-2.53;75.77;98326.64;117310;1177;70775;-68
2021/10/27 03:21:22;;;;;;;22.90;14.90;;;;;;;-2.57;76.24;98326.64;117303;1174;68115;-64
2021/10/27 03:23:52;;;;;;;16.70;11.00;;;;;;;-2.60;77.30;98324.61;117309;1174;68585;-65
2021/10/27 03:26:22;;;;;;;14.10;9.60;;;;;;;-2.64;76.73;98321.39;117340;1174;59519;-64
2021/10/27 03:28:53;;;;;;;14.50;9.10;;;;;;;-2.67;75.75;98321.59;117224;1176;59518;-65
2021/10/27 03:31:24;;;;;;;17.10;12.00;;;;;;;-2.67;75.42;98320.23;117273;1177;71395;-65
2021/10/27 03:33:54;;;;;;;13.20;8.70;;;;;;;-2.68;75.67;98319.38;117300;1176;67276;-64
2021/10/27 03:36:25;;;;;;;16.10;11.20;;;;;;;-2.69;76.02;98321.27;117240;1177;69214;-65
2021/10/27 03:38:54;;;;;;;23.40;16.90;;;;;;;-2.70;75.48;98321.77;117257;1175;59972;-65
2021/10/27 03:41:25;;;;;;;24.40;16.20;;;;;;;-2.73;76.27;98326.39;117265;1175;59562;-65
2021/10/27 03:43:55;;;;;;;18.50;14.80;;;;;;;-2.74;77.00;98323.84;117186;1175;70569;-64
2021/10/27 03:46:25;;;;;;;23.90;16.60;;;;;;;-2.75;77.17;98325.56;117272;1177;68564;-64
2021/10/27 03:48:54;;;;;;;31.30;19.70;;;;;;;-2.77;77.95;98330.52;117280;1177;69115;-64
2021/10/27 03:51:24;;;;;;;37.00;23.80;;;;;;;-2.78;80.51;98330.69;117240;1174;59583;-65
2021/10/27 03:53:54;;;;;;;33.40;22.50;;;;;;;-2.80;82.35;98337.52;117173;1176;59493;-64
2021/10/27 03:56:24;;;;;;;46.10;23.60;;;;;;;-2.81;81.12;98341.30;117274;1176;70622;-63
2021/10/27 03:58:54;;;;;;;37.30;23.80;;;;;;;-2.83;82.53;98339.23;117256;1177;68380;-63
2021/10/27 04:01:23;;;;;;;32.60;20.60;;;;;;;-2.84;83.24;98342.48;117246;1167;68984;-63
2021/10/27 04:03:54;;;;;;;;;;;;;;;-2.86;82.62;98341.65;117371;1176;59520;-63
2021/10/27 04:06:25;;;;;;;24.40;16.80;;;;;;;-2.91;81.75;98335.36;117241;1173;59512;-64
2021/10/27 04:08:54;;;;;;;19.40;12.00;;;;;;;-2.94;80.35;98335.72;117314;1175;69501;-64
2021/10/27 04:11:24;;;;;;;18.30;12.80;;;;;;;-2.96;78.93;98336.05;117182;1176;68543;-63
2021/10/27 04:13:54;;;;;;;21.40;14.20;;;;;;;-2.98;77.81;98332.66;117233;1175;69229;-63
2021/10/27 04:16:23;;;;;;;22.50;15.90;;;;;;;-2.99;77.88;98336.94;117263;1177;59606;-63
2021/10/27 04:18:53;;;;;;;13.60;8.50;;;;;;;-3.00;77.84;98339.50;117205;1175;59535;-63
2021/10/27 04:21:22;;;;;;;16.30;11.80;;;;;;;-3.02;76.76;98336.27;117292;1166;71697;-63
2021/10/27 04:23:52;;;;;;;16.90;11.80;;;;;;;-3.04;75.75;98343.95;117303;1175;67752;-64
2021/10/27 04:26:21;;;;;;;40.80;23.70;;;;;;;-3.05;75.67;98345.66;117330;1175;69336;-64
2021/10/27 04:28:52;;;;;;;19.00;13.60;;;;;;;-3.08;78.94;98348.90;116995;1176;59538;-64
2021/10/27 04:31:22;;;;;;;12.20;8.30;;;;;;;-3.09;76.68;98348.91;117263;1175;59520;-65
2021/10/27 04:33:51;;;;;;;22.50;14.70;;;;;;;-3.09;76.35;98348.58;117272;1175;71347;-64
2021/10/27 04:36:20;;;;;;;33.60;21.30;;;;;;;-3.11;78.82;98345.67;117236;1176;67599;-64
2021/10/27 04:38:50;;;;;;;36.90;20.80;;;;;;;-3.13;79.30;98339.72;117257;1176;68497;-64
2021/10/27 04:41:20;;;;;;;20.10;14.30;;;;;;;-3.15;80.88;98346.70;117308;1175;59547;-64
2021/10/27 04:43:50;;;;;;;24.80;15.10;;;;;;;-3.17;78.44;98350.98;117317;1175;59590;-63
2021/10/27 04:46:19;;;;;;;26.80;17.90;;;;;;;-3.19;77.44;98350.30;117305;1175;71260;-63
2021/10/27 04:48:49;;;;;;;41.10;24.60;;;;;;;-3.22;78.24;98352.53;117288;1175;68383;-64
2021/10/27 04:51:19;;;;;;;20.70;12.80;;;;;;;-3.26;80.87;98353.39;117281;1175;69318;-63
2021/10/27 04:53:48;;;;;;;24.40;16.60;;;;;;;-3.25;78.84;98354.92;117103;1177;59682;-63
2021/10/27 04:56:18;;;;;;;17.90;14.10;;;;;;;-3.27;79.96;98356.30;117307;1176;59532;-64
2021/10/27 04:58:47;;;;;;;15.90;9.50;;;;;;;-3.27;79.97;98356.98;117252;1176;71136;-63
2021/10/27 05:01:18;;;;;;;41.70;23.10;;;;;;;-3.27;78.42;98356.81;117180;1177;67689;-64
2021/10/27 05:03:48;;;;;;;40.20;23.90;;;;;;;-3.30;81.45;98358.69;117236;1175;69192;-64
2021/10/27 05:06:18;;;;;;;34.40;21.20;;;;;;;-3.32;81.60;98358.02;117060;1176;59509;-63
2021/10/27 05:08:47;;;;;;;18.00;13.30;;;;;;;-3.31;81.06;98360.58;117256;1177;59571;-65
2021/10/27 05:11:17;;;;;;;22.40;14.60;;;;;;;-3.30;79.67;98363.80;117224;1175;71978;-63
2021/10/27 05:13:46;;;;;;;33.00;21.20;;;;;;;-3.28;79.11;98368.40;117303;1176;68312;-65
2021/10/27 05:16:15;;;;;;;19.50;12.50;;;;;;;-3.25;79.43;98373.67;117279;1175;69227;-63
2021/10/27 05:18:45;;;;;;;16.60;11.30;;;;;;;-3.22;78.24;98364.80;117282;1174;59516;-63
2021/10/27 05:21:14;;;;;;;18.10;13.80;;;;;;;-3.17;77.08;98367.69;117081;1176;59528;-63
2021/10/27 05:23:45;;;;;;;21.90;13.40;;;;;;;-3.11;76.66;98365.45;117292;1175;71261;-63
2021/10/27 05:26:15;;;;;;;22.10;14.80;;;;;;;-3.06;78.63;98365.77;117309;1175;68339;-63
2021/10/27 05:28:44;;;;;;;26.40;16.10;;;;;;;-3.02;78.13;98371.23;117246;1176;69171;-63
2021/10/27 05:31:13;;;;;;;23.10;14.20;;;;;;;-2.98;79.22;98379.23;117221;1166;59520;-64
2021/10/27 05:33:43;;;;;;;18.20;13.50;;;;;;;-2.95;77.89;98380.23;117345;1175;59510;-67
2021/10/27 05:36:12;;;;;;;17.60;11.10;;;;;;;-2.89;77.90;98388.23;117325;1177;70821;-63
2021/10/27 05:38:41;;;;;;;17.30;13.00;;;;;;;-2.82;77.30;98394.17;117297;1175;67427;-64
2021/10/27 05:41:11;;;;;;;30.80;20.40;;;;;;;-2.74;77.70;98395.00;117324;1175;69231;-63
2021/10/27 05:43:42;;;;;;;17.90;11.30;;;;;;;-2.67;77.71;98399.75;117273;1175;59520;-63
2021/10/27 05:46:12;;;;;;;33.50;20.80;;;;;;;-2.56;75.89;98400.38;117271;1177;59476;-63
2021/10/27 05:48:45;;;;;;;48.40;30.80;;;;;;;-2.48;78.27;98406.83;117259;1176;71593;-63
2021/10/27 05:51:24;;;;;;;43.40;24.40;;;;;;;-2.45;79.64;98406.64;117283;1175;67776;-62
2021/10/27 05:56:43;;;;;;;25.30;18.10;;;;;;;-2.30;76.65;98414.23;117294;1174;59480;-64
2021/10/27 05:59:12;;;;;;;27.00;19.00;;;;;;;-2.22;76.61;98420.70;117289;1175;59539;-62
2021/10/27 06:01:41;;;;;;;24.90;17.60;;;;;;;-2.12;76.08;98422.84;117272;1175;71343;-62
2021/10/27 06:04:11;;;;;;;23.80;17.30;;;;;;;-2.01;75.68;98425.35;117264;1175;68567;-62
2021/10/27 06:06:40;;;;;;;32.80;21.70;;;;;;;-1.89;76.11;98435.52;117309;1175;68395;-63
2021/10/27 06:09:10;;;;;;;24.80;15.90;;;;;;;-1.74;76.54;98444.64;117240;1175;59529;-63
2021/10/27 06:11:40;;;;;;;32.40;21.60;;;;;;;-1.58;77.32;98451.36;117326;1177;59528;-63
2021/10/27 06:14:10;;;;;;;30.70;20.70;;;;;;;-1.37;76.60;98456.48;117262;1176;71926;-64
2021/10/27 06:16:44;;;;;;;28.80;19.70;;;;;;;-0.98;76.55;98460.73;117300;1174;67626;-64
2021/10/27 06:19:13;;;;;;;47.00;28.60;;;;;;;-0.38;75.63;98465.38;117268;1175;68320;-63
2021/10/27 06:21:42;;;;;;;42.20;29.30;;;;;;;0.19;73.73;98471.30;117260;1171;59529;-61
2021/10/27 06:24:11;;;;;;;62.60;41.20;;;;;;;0.73;73.77;98476.46;117191;1167;59513;-63
2021/10/27 06:26:41;;;;;;;61.40;38.30;;;;;;;1.27;72.50;98474.50;117304;1177;70635;-62
2021/10/27 06:29:19;;;;;;;49.30;29.60;;;;;;;1.79;71.75;98477.77;117281;1177;68482;-62
2021/10/27 06:32:00;;;;;;;38.40;25.30;;;;;;;2.29;70.56;98483.57;117275;1175;69068;-63
2021/10/27 06:34:33;;;;;;;81.30;52.40;;;;;;;2.93;69.87;98480.00;117197;1175;59520;-63
2021/10/27 06:48:08;;;;;;;51.40;37.00;;;;;;;5.75;60.16;98487.93;117221;1175;59538;-65
2021/10/27 06:50:37;;;;;;;72.40;51.90;;;;;;;5.89;54.78;98484.98;117256;1174;59567;-64
2021/10/27 06:53:07;;;;;;;49.80;34.70;;;;;;;6.17;55.76;98485.02;117264;1167;71339;-65
2021/10/27 06:55:38;;;;;;;48.70;34.70;;;;;;;6.68;58.80;98490.10;117255;1175;67971;-63
2021/10/27 06:58:10;;;;;;;45.00;29.10;;;;;;;7.34;57.83;98490.17;117200;1174;69074;-63
2021/10/27 07:00:44;;;;;;;66.80;46.30;;;;;;;8.00;55.91;98499.94;117264;1174;59484;-63
2021/10/27 07:06:38;;;;;;;40.10;30.10;;;;;;;9.18;52.66;98495.05;117262;1176;72027;-66
2021/10/27 07:17:32;;;;;;;66.70;48.80;;;;;;;10.48;45.11;98491.55;117344;1174;59452;-67
2021/10/27 07:20:07;;;;;;;46.80;35.70;;;;;;;10.46;43.40;98492.20;117278;1174;71418;-66
2021/10/27 07:22:37;;;;;;;53.00;42.40;;;;;;;10.98;44.63;98491.38;117252;1174;67483;-62
2021/10/27 07:25:08;;;;;;;35.60;25.80;;;;;;;11.46;43.51;98485.80;117313;1175;69754;-68
2021/10/27 07:27:37;;;;;;;23.90;18.90;;;;;;;12.00;44.48;98491.64;117308;1174;59529;-65
2021/10/27 07:30:07;;;;;;;38.20;29.40;;;;;;;12.39;42.43;98492.52;117294;1166;59526;-67
2021/10/27 07:32:37;;;;;;;36.70;27.60;;;;;;;12.16;40.10;98494.33;117258;1174;71091;-65
2021/10/27 07:40:41;;;;;;;24.50;19.60;;;;;;;12.90;41.38;98486.95;117280;1175;59494;-64
2021/10/27 07:43:21;;;;;;;23.30;17.20;;;;;;;13.52;40.85;98487.63;117194;1175;59487;-65
2021/10/27 07:45:54;;;;;;;27.80;22.50;;;;;;;13.96;38.35;98484.20;117276;1175;71364;-65
2021/10/27 07:48:23;;;;;;;28.90;22.30;;;;;;;13.10;37.47;98480.05;117210;1177;67185;-66
2021/10/27 07:50:53;;;;;;;23.70;18.50;;;;;;;12.53;38.99;98481.47;117216;1176;68605;-65
2021/10/27 07:53:23;;;;;;;27.00;21.80;;;;;;;12.45;39.53;98483.02;117162;1176;59520;-65
2021/10/27 07:55:54;;;;;;;19.60;15.60;;;;;;;12.74;39.20;98488.16;117268;1177;59860;-64
2021/10/27 07:58:27;;;;;;;19.60;14.30;;;;;;;13.41;38.45;98492.35;117226;1176;72024;-65
2021/10/27 08:00:58;;;;;;;21.90;17.20;;;;;;;14.20;38.49;98495.57;117294;1176;68769;-65
2021/10/27 08:03:32;;;;;;;20.90;16.00;;;;;;;15.00;38.30;98493.95;117271;1175;69152;-65
2021/10/27 08:06:06;;;;;;;29.50;24.10;;;;;;;15.71;36.34;98490.81;117246;1176;59537;-67
2021/10/27 08:08:36;;;;;;;30.40;23.20;;;;;;;16.02;34.81;98493.54;117292;1175;59516;-67
2021/10/27 08:11:05;;;;;;;29.90;24.60;;;;;;;16.14;34.01;98487.84;117310;1177;71352;-65
2021/10/27 08:13:34;;;;;;;25.00;19.60;;;;;;;16.57;34.57;98489.16;117288;1175;68762;-69
2021/10/27 08:16:04;;;;;;;32.90;25.80;;;;;;;17.09;34.45;98482.09;117298;1174;69279;-68
2021/10/27 08:18:33;;;;;;;34.00;26.40;;;;;;;17.17;30.67;98470.37;117311;1175;59532;-69
2021/10/27 08:21:02;;;;;;;35.60;26.50;;;;;;;16.35;31.60;98468.36;117140;1176;59541;-65
2021/10/27 08:23:35;;;;;;;33.00;25.10;;;;;;;14.87;33.84;98467.89;117201;1177;71305;-66
2021/10/27 08:26:08;;;;;;;27.80;19.10;;;;;;;14.12;35.17;98469.23;117179;1176;68025;-67
2021/10/27 08:28:39;;;;;;;41.60;31.40;;;;;;;13.99;35.28;98470.89;117369;1177;69848;-64
2021/10/27 08:36:12;;;;;;;38.80;29.30;;;;;;;12.55;38.45;98469.80;117294;1175;71359;-65
2021/10/27 08:38:41;;;;;;;39.60;30.60;;;;;;;13.46;36.93;98463.84;117349;1176;68339;-66
2021/10/27 08:41:32;;;;;;;36.10;26.00;;;;;;;13.80;36.75;98462.71;117230;1175;69176;-67
2021/10/27 08:44:03;;;;;;;39.40;29.90;;;;;;;14.23;35.45;98465.67;117275;1175;59532;-68
2021/10/27 08:46:34;;;;;;;30.60;21.80;;;;;;;14.60;34.41;98465.66;117302;1175;59491;-70
2021/10/27 08:49:06;;;;;;;35.50;29.00;;;;;;;15.30;32.65;98469.66;117259;1175;70867;-64
2021/10/27 08:51:37;;;;;;;36.40;29.70;;;;;;;15.86;32.08;98470.50;117286;1175;68832;-66
2021/10/27 08:54:08;;;;;;;40.50;30.60;;;;;;;16.11;31.12;98477.33;117205;1175;69161;-68
2021/10/27 08:56:43;;;;;;;38.40;30.00;;;;;;;16.66;31.47;98479.59;117251;1176;59560;-67
2021/10/27 08:59:21;;;;;;;36.10;28.40;;;;;;;16.51;30.27;98481.20;117305;1175;59497;-71
2021/10/27 09:16:19;;;;;;;34.70;24.30;;;;;;;16.42;30.14;98486.41;117258;1175;71137;-68
2021/10/27 09:39:18;;;;;;;37.40;30.60;;;;;;;20.27;24.96;98489.15;117265;1175;59533;-66
2021/10/27 10:04:31;;;;;;;45.50;36.50;;;;;;;19.42;25.77;98466.39;117217;1176;69611;-67
2021/10/27 10:07:05;;;;;;;38.80;27.40;;;;;;;19.62;25.50;98462.58;117186;1177;59532;-68
2021/10/27 10:09:39;;;;;;;41.80;30.40;;;;;;;20.51;24.53;98464.09;117272;1174;59538;-70
2021/10/27 10:12:10;;;;;;;38.30;27.30;;;;;;;20.31;24.78;98460.98;117264;1175;70732;-66
2021/10/27 10:14:47;;;;;;;41.80;31.40;;;;;;;21.16;23.63;98460.45;117307;1175;67376;-67
2021/10/27 10:17:16;;;;;;;42.60;31.40;;;;;;;19.89;24.57;98460.20;117272;1176;69615;-67
2021/10/27 10:19:48;;;;;;;44.60;33.30;;;;;;;20.90;24.18;98457.73;117243;1176;59525;-65
2021/10/27 10:22:38;;;;;;;42.70;32.40;;;;;;;20.51;23.97;98456.36;117229;1171;60032;-68
2021/10/27 10:25:20;;;;;;;43.50;32.40;;;;;;;19.23;25.41;98452.11;117296;1176;71936;-70
2021/10/27 10:28:21;;;;;;;42.00;31.60;;;;;;;19.07;25.91;98443.10;117286;1176;68986;-67
2021/10/27 10:30:54;;;;;;;40.60;30.70;;;;;;;19.57;25.51;98443.59;117243;1176;69125;-69
2021/10/27 10:33:48;;;;;;;38.90;28.80;;;;;;;18.99;25.60;98439.89;117222;1174;59535;-69
2021/10/27 10:36:20;;;;;;;33.70;27.10;;;;;;;18.75;26.13;98438.89;117187;1175;59532;-71
2021/10/27 10:41:57;;;;;;;32.50;26.30;;;;;;;19.84;25.05;98429.00;117222;1177;69332;-67
2021/10/27 11:41:50;;;;;;;17.60;13.50;;;;;;;23.60;21.00;98378.85;117220;1175;69802;-67
2021/10/27 11:44:48;;;;;;;20.70;18.20;;;;;;;24.52;19.69;98373.23;117207;1174;59568;-65
2021/10/27 11:47:43;;;;;;;21.00;17.20;;;;;;;25.34;19.00;98373.81;117268;1175;59532;-65
2021/10/27 11:50:15;;;;;;;22.00;19.10;;;;;;;25.67;18.72;98374.59;117284;1174;71506;-69
2021/10/27 11:52:52;;;;;;;24.80;18.60;;;;;;;26.16;18.17;98372.09;117187;1175;68826;-66
2021/10/27 11:55:22;;;;;;;22.00;17.20;;;;;;;26.62;17.92;98374.41;117274;1175;69563;-65
2021/10/27 11:57:55;;;;;;;26.10;22.00;;;;;;;26.99;17.59;98376.42;117396;1175;59536;-66
2021/10/27 12:00:35;;;;;;;22.40;18.20;;;;;;;27.30;17.44;98372.83;117277;1175;59465;-67
2021/10/27 12:05:56;;;;;;;22.40;16.50;;;;;;;28.07;16.41;98370.00;117294;1175;69053;-66
2021/10/27 12:08:48;;;;;;;;;;;;;;;28.47;16.60;98375.45;117278;1175;69300;-66
2021/10/27 12:14:16;;;;;;;27.20;22.50;;;;;;;29.06;16.20;98364.18;117257;1176;59516;-64
2021/10/27 12:19:24;;;;;;;21.90;17.40;;;;;;;28.65;15.95;98356.66;117289;1175;68382;-64
2021/10/27 12:22:17;;;;;;;21.30;16.90;;;;;;;28.81;16.18;98354.23;117336;1175;68465;-66
2021/10/27 12:24:53;;;;;;;21.80;18.10;;;;;;;29.01;15.88;98351.30;117195;1177;59545;-68
2021/10/27 12:27:30;;;;;;;24.30;19.20;;;;;;;29.20;15.82;98348.93;117285;1176;59523;-70
2021/10/27 12:30:04;;;;;;;18.60;15.80;;;;;;;28.76;14.85;98347.56;117055;1176;71973;-68
2021/10/27 12:32:34;;;;;;;24.50;18.50;;;;;;;29.04;15.57;98347.50;116894;1176;68378;-68
2021/10/27 12:35:14;;;;;;;24.30;17.90;;;;;;;29.22;15.45;98350.27;117236;1176;69188;-66
2021/10/27 12:37:50;;;;;;;21.30;16.20;;;;;;;29.43;15.24;98348.25;117215;1175;59535;-69
2021/10/27 12:40:34;;;;;;;26.90;19.40;;;;;;;29.50;15.03;98349.24;117089;1175;59510;-66
2021/10/27 12:43:16;;;;;;;20.70;17.50;;;;;;;28.93;14.77;98345.77;117117;1177;71193;-65
2021/10/27 12:45:50;;;;;;;23.20;18.90;;;;;;;28.78;15.05;98343.02;117386;1175;68368;-71
2021/10/27 12:48:24;;;;;;;24.70;19.30;;;;;;;28.59;15.23;98344.77;116918;1177;69636;-70
2021/10/27 12:51:02;;;;;;;18.70;15.30;;;;;;;28.72;15.29;98345.08;117285;1175;59542;-70
2021/10/27 12:53:32;;;;;;;26.50;20.80;;;;;;;28.93;15.26;98341.67;117306;1177;59529;-72
2021/10/27 12:56:11;;;;;;;17.20;13.50;;;;;;;29.08;14.98;98340.95;116992;1177;72133;-68
2021/10/27 12:58:46;;;;;;;20.20;14.90;;;;;;;29.15;14.92;98342.86;117267;1177;68549;-66
2021/10/27 13:02:08;;;;;;;23.20;19.60;;;;;;;29.11;14.87;98339.30;117252;1177;68447;-66
2021/10/27 13:12:19;;;;;;;19.70;14.70;;;;;;;29.27;14.20;98344.38;117233;1176;68823;-67
2021/10/27 13:20:17;;;;;;;17.70;12.00;;;;;;;29.23;14.42;98347.23;117245;1176;59471;-65
2021/10/27 13:31:10;;;;;;;19.90;15.20;;;;;;;28.86;14.40;98344.02;117246;1175;59545;-67
2021/10/27 13:33:39;;;;;;;13.90;10.40;;;;;;;28.58;14.55;98344.64;117363;1174;59520;-65
2021/10/27 13:36:09;;;;;;;15.20;11.20;;;;;;;28.24;14.77;98343.73;117294;1175;70556;-66
2021/10/27 13:38:38;;;;;;;14.00;10.50;;;;;;;28.25;15.08;98346.97;117278;1175;68216;-66
2021/10/27 13:41:09;;;;;;;16.30;11.30;;;;;;;28.16;14.94;98341.78;117269;1174;69799;-64
2021/10/27 13:43:45;;;;;;;14.30;11.20;;;;;;;28.21;15.02;98343.06;117205;1175;59484;-65
2021/10/27 13:49:25;;;;;;;13.50;11.50;;;;;;;27.88;15.15;98341.27;117308;1176;71473;-67
2021/10/27 14:11:30;;;;;;;16.20;12.30;;;;;;;26.46;16.80;98331.70;117039;1176;59653;-65
2021/10/27 14:14:05;;;;;;;13.40;10.50;;;;;;;26.18;17.04;98331.18;117230;1174;59477;-65
2021/10/27 14:39:18;;;;;;;14.10;11.40;;;;;;;24.04;19.14;98335.52;117098;1177;59504;-64
2021/10/27 15:20:53;;;;;;;13.20;9.80;;;;;;;15.29;29.67;98355.59;117197;1177;59532;-64
2021/10/27 15:23:32;;;;;;;12.40;8.50;;;;;;;14.88;29.35;98353.28;117086;1177;59535;-66
2021/10/27 15:27:37;;;;;;;17.30;10.80;;;;;;;14.50;29.35;98352.89;117172;1170;71509;-63
2021/10/27 15:29:03;;;;;;;19.80;14.80;;;;;;;13.98;32.97;98348.95;117040;1177;68785;-64
2021/10/27 15:31:40;;;;;;;23.40;15.50;;;;;;;13.40;34.60;98354.15;117203;1176;69688;-67
2021/10/27 15:42:46;;;;;;;63.90;39.90;;;;;;;11.94;35.72;98361.52;117205;1176;67986;-66
2021/10/27 15:45:36;;;;;;;35.40;21.40;;;;;;;11.65;38.06;98370.44;117082;1177;69344;-64
2021/10/27 15:51:02;;;;;;;29.00;17.50;;;;;;;11.31;36.40;98372.02;117297;1177;59493;-67
2021/10/27 15:53:33;;;;;;;31.80;20.70;;;;;;;11.17;35.85;98373.00;117177;1176;70722;-68
2021/10/27 15:56:04;;;;;;;35.40;22.30;;;;;;;11.03;36.39;98373.16;117233;1176;67597;-66
2021/10/27 15:58:33;;;;;;;28.60;19.40;;;;;;;10.82;37.46;98373.02;117238;1176;68793;-66
2021/10/27 16:01:03;;;;;;;35.30;23.70;;;;;;;10.58;40.07;98374.77;117253;1176;59587;-65
2021/10/27 16:03:32;;;;;;;44.10;27.00;;;;;;;10.28;41.36;98377.52;117144;1177;59834;-64
2021/10/27 16:06:02;;;;;;;58.50;37.00;;;;;;;10.06;41.76;98380.27;117322;1175;70463;-66
2021/10/27 16:08:34;;;;;;;52.80;31.10;;;;;;;9.84;42.38;98384.63;117247;1175;67397;-66
2021/10/27 16:11:04;;;;;;;72.20;41.20;;;;;;;9.70;40.73;98383.13;117297;1177;69774;-63
2021/10/27 16:13:33;;;;;;;79.50;46.10;;;;;;;9.55;40.64;98383.55;117006;1177;59596;-63
2021/10/27 16:16:03;;;;;;;64.10;39.50;;;;;;;9.40;41.53;98382.82;117209;1175;59513;-64